Погода Устовона неделю

Западнопоморское воеводство, Польша

17 - 23 июля
  • 17июля
    Сегодня
    +14°
    +23°
    Облачно с прояснениями
    ВремяПогодаТемператураВлажностьДавлениеВетер, м/сВероятность осадков
    02:00Ясно и безоблачно+18°C82 %758 мм2.6 м/с2 %
    05:00Ясно и безоблачно+16°C83 %760 мм2.7 м/с1 %
    08:00Небольшая облачность+18°C78 %760 мм3.0 м/с2 %
    11:00Небольшая облачность+21°C62 %761 мм4.5 м/с8 %
    14:00Облачно с прояснениями+22°C58 %761 мм4.9 м/с48 %
    17:00Небольшая облачность+23°C54 %762 мм3.9 м/с32 %
    20:00Практически безоблачно+21°C65 %762 мм2.9 м/с17 %
    23:00Ясно и безоблачно+18°C77 %763 мм2.2 м/с2 %
  • 18июля
    Четверг
    +14°
    +25°
    Облачно с прояснениями
    ВремяПогодаТемператураВлажностьДавлениеВетер, м/сВероятность осадков
    02:00Ясно и безоблачно+16°C85 %764 мм2.3 м/с1 %
    05:00Ясно и безоблачно+14°C92 %765 мм2.0 м/с5 %
    08:00Небольшая облачность+17°C82 %765 мм2.5 м/с3 %
    11:00Облачно с прояснениями+21°C66 %766 мм2.6 м/с7 %
    14:00Облачно с прояснениями+23°C44 %766 мм2.7 м/с2 %
    17:00Облачно с прояснениями+24°C48 %765 мм2.8 м/с2 %
    20:00Облачно с прояснениями+22°C69 %765 мм2.0 м/с2 %
    23:00Облачно с прояснениями+18°C85 %766 мм1.8 м/с2 %
  • 19июля
    Пятница
    +13°
    +27°
    Небольшая облачность
    ВремяПогодаТемператураВлажностьДавлениеВетер, м/сВероятность осадков
    02:00Ясно и безоблачно+15°C94 %766 мм1.3 м/с2 %
    05:00Ясно и безоблачно+14°C96 %765 мм1.0 м/с2 %
    08:00Ясно и безоблачно+19°C79 %765 мм0.6 м/с2 %
    11:00Ясно и безоблачно+23°C56 %765 мм1.7 м/с2 %
    14:00Небольшая облачность+25°C45 %764 мм2.4 м/с2 %
    17:00Облачно с прояснениями+25°C55 %763 мм2.9 м/с3 %
    20:00Практически безоблачно+22°C69 %763 мм2.9 м/с2 %
    23:00Ясно и безоблачно+17°C82 %763 мм1.7 м/с2 %
  • 20июля
    Суббота
    +16°
    +26°
    Ясно и безоблачно
    ВремяПогодаТемператураВлажностьДавлениеВетер, м/сВероятность осадков
    02:00Ясно и безоблачно+15°C88 %762 мм1.5 м/с2 %
    05:00Практически безоблачно+14°C97 %761 мм1.3 м/с2 %
    08:00Ясно и безоблачно+19°C76 %760 мм1.2 м/с2 %
    11:00Ясно и безоблачно+23°C48 %760 мм2.3 м/с2 %
    14:00Ясно и безоблачно+25°C47 %759 мм2.5 м/с2 %
    17:00Ясно и безоблачно+26°C47 %758 мм2.8 м/с2 %
    20:00Небольшая облачность+23°C61 %757 мм2.6 м/с2 %
    23:00Ясно и безоблачно+19°C80 %756 мм2.2 м/с2 %
  • 21июля
    Воскресенье
    +17°
    +31°
    Небольшая облачность
    ВремяПогодаТемператураВлажностьДавлениеВетер, м/сВероятность осадков
    02:00Ясно и безоблачно+17°C77 %756 мм2.0 м/с2 %
    05:00Ясно и безоблачно+16°C73 %754 мм2.0 м/с2 %
    08:00Ясно и безоблачно+20°C68 %754 мм2.1 м/с2 %
    11:00Небольшая облачность+27°C52 %753 мм3.3 м/с2 %
    14:00Небольшая облачность+29°C38 %752 мм3.4 м/с7 %
    17:00Облачно с прояснениями+30°C37 %752 мм2.6 м/с37 %
    20:00Облачно с прояснениями+24°C67 %752 мм2.6 м/с37 %
    23:00Пасмурно, дождь+21°C91 %752 мм1.7 м/с40 %
Мы используем cookies
Соглашаюсь